sensor_id;sensor_type;location;lat;lon;timestamp;temperature;humidity
53498;DHT22;39382;47.168;16.008;2023-03-07T00:00:51;3.60;99.90
53498;DHT22;39382;47.168;16.008;2023-03-07T00:03:17;3.70;99.90
53498;DHT22;39382;47.168;16.008;2023-03-07T00:05:44;3.70;99.90
53498;DHT22;39382;47.168;16.008;2023-03-07T00:08:10;3.60;99.90
53498;DHT22;39382;47.168;16.008;2023-03-07T00:10:36;3.60;99.90
53498;DHT22;39382;47.168;16.008;2023-03-07T00:13:02;3.50;99.90
53498;DHT22;39382;47.168;16.008;2023-03-07T00:15:28;3.60;99.90
53498;DHT22;39382;47.168;16.008;2023-03-07T00:17:55;3.60;99.90
53498;DHT22;39382;47.168;16.008;2023-03-07T00:20:21;3.60;99.90
53498;DHT22;39382;47.168;16.008;2023-03-07T00:22:46;3.50;99.90
53498;DHT22;39382;47.168;16.008;2023-03-07T00:25:12;3.50;99.90
53498;DHT22;39382;47.168;16.008;2023-03-07T00:27:39;3.60;99.90
53498;DHT22;39382;47.168;16.008;2023-03-07T00:30:05;3.60;99.90
53498;DHT22;39382;47.168;16.008;2023-03-07T00:32:31;3.50;99.90
53498;DHT22;39382;47.168;16.008;2023-03-07T00:34:57;3.40;99.90
53498;DHT22;39382;47.168;16.008;2023-03-07T00:37:24;3.40;99.90
53498;DHT22;39382;47.168;16.008;2023-03-07T00:39:50;3.40;99.90
53498;DHT22;39382;47.168;16.008;2023-03-07T00:42:16;3.50;99.90
53498;DHT22;39382;47.168;16.008;2023-03-07T00:44:41;3.40;99.90
53498;DHT22;39382;47.168;16.008;2023-03-07T00:47:07;3.40;99.90
53498;DHT22;39382;47.168;16.008;2023-03-07T00:49:33;3.40;99.90
53498;DHT22;39382;47.168;16.008;2023-03-07T00:51:59;3.50;99.90
53498;DHT22;39382;47.168;16.008;2023-03-07T00:54:25;3.50;99.90
53498;DHT22;39382;47.168;16.008;2023-03-07T00:56:50;3.50;99.90
53498;DHT22;39382;47.168;16.008;2023-03-07T00:59:16;3.50;99.90
53498;DHT22;39382;47.168;16.008;2023-03-07T01:01:42;3.50;99.90
53498;DHT22;39382;47.168;16.008;2023-03-07T01:04:07;3.50;99.90
53498;DHT22;39382;47.168;16.008;2023-03-07T01:06:33;3.50;99.90
53498;DHT22;39382;47.168;16.008;2023-03-07T01:09:03;3.50;99.90
53498;DHT22;39382;47.168;16.008;2023-03-07T01:11:30;3.50;99.90
53498;DHT22;39382;47.168;16.008;2023-03-07T01:13:57;3.40;99.90
53498;DHT22;39382;47.168;16.008;2023-03-07T01:16:34;3.50;99.90
53498;DHT22;39382;47.168;16.008;2023-03-07T01:19:02;3.40;99.90
53498;DHT22;39382;47.168;16.008;2023-03-07T01:21:32;3.40;99.90
53498;DHT22;39382;47.168;16.008;2023-03-07T01:23:59;3.40;99.90
53498;DHT22;39382;47.168;16.008;2023-03-07T01:26:27;3.40;99.90
53498;DHT22;39382;47.168;16.008;2023-03-07T01:28:55;3.40;99.90
53498;DHT22;39382;47.168;16.008;2023-03-07T01:31:22;3.40;99.90
53498;DHT22;39382;47.168;16.008;2023-03-07T01:33:49;3.50;99.90
53498;DHT22;39382;47.168;16.008;2023-03-07T01:36:23;3.50;99.90
53498;DHT22;39382;47.168;16.008;2023-03-07T01:39:15;3.40;99.90
53498;DHT22;39382;47.168;16.008;2023-03-07T01:41:41;3.50;99.90
53498;DHT22;39382;47.168;16.008;2023-03-07T01:44:19;3.70;99.90
53498;DHT22;39382;47.168;16.008;2023-03-07T01:46:51;3.50;99.90
53498;DHT22;39382;47.168;16.008;2023-03-07T01:52:02;3.30;99.90
53498;DHT22;39382;47.168;16.008;2023-03-07T01:54:30;3.30;99.90
53498;DHT22;39382;47.168;16.008;2023-03-07T01:56:57;3.30;99.90
53498;DHT22;39382;47.168;16.008;2023-03-07T01:59:32;3.20;99.90
53498;DHT22;39382;47.168;16.008;2023-03-07T02:02:02;3.20;99.90
53498;DHT22;39382;47.168;16.008;2023-03-07T02:04:35;3.30;99.90
53498;DHT22;39382;47.168;16.008;2023-03-07T02:07:04;3.30;99.90
53498;DHT22;39382;47.168;16.008;2023-03-07T02:09:32;3.40;99.90
53498;DHT22;39382;47.168;16.008;2023-03-07T02:11:59;3.40;99.90
53498;DHT22;39382;47.168;16.008;2023-03-07T02:14:26;3.40;99.90
53498;DHT22;39382;47.168;16.008;2023-03-07T02:16:52;3.40;99.90
53498;DHT22;39382;47.168;16.008;2023-03-07T02:22:13;3.40;99.90
53498;DHT22;39382;47.168;16.008;2023-03-07T02:24:58;3.30;99.90
53498;DHT22;39382;47.168;16.008;2023-03-07T02:27:27;3.40;99.90
53498;DHT22;39382;47.168;16.008;2023-03-07T02:29:54;3.30;99.90
53498;DHT22;39382;47.168;16.008;2023-03-07T02:32:20;3.40;99.90
53498;DHT22;39382;47.168;16.008;2023-03-07T02:34:46;3.40;99.90
53498;DHT22;39382;47.168;16.008;2023-03-07T02:37:17;3.40;99.90
53498;DHT22;39382;47.168;16.008;2023-03-07T02:39:45;3.40;99.90
53498;DHT22;39382;47.168;16.008;2023-03-07T02:42:22;3.30;99.90
53498;DHT22;39382;47.168;16.008;2023-03-07T02:44:57;3.30;99.90
53498;DHT22;39382;47.168;16.008;2023-03-07T02:47:24;3.30;99.90
53498;DHT22;39382;47.168;16.008;2023-03-07T02:49:49;3.30;99.90
53498;DHT22;39382;47.168;16.008;2023-03-07T02:52:15;3.30;99.90
53498;DHT22;39382;47.168;16.008;2023-03-07T02:54:41;3.40;99.90
53498;DHT22;39382;47.168;16.008;2023-03-07T02:57:06;3.40;99.90
53498;DHT22;39382;47.168;16.008;2023-03-07T02:59:32;3.40;99.90
53498;DHT22;39382;47.168;16.008;2023-03-07T03:01:58;3.50;99.90
53498;DHT22;39382;47.168;16.008;2023-03-07T03:04:23;3.40;99.90
53498;DHT22;39382;47.168;16.008;2023-03-07T03:06:49;3.30;99.90
53498;DHT22;39382;47.168;16.008;2023-03-07T03:09:15;3.30;99.90
53498;DHT22;39382;47.168;16.008;2023-03-07T03:11:41;3.30;99.90
53498;DHT22;39382;47.168;16.008;2023-03-07T03:14:06;3.30;99.90
53498;DHT22;39382;47.168;16.008;2023-03-07T03:16:32;3.30;99.90
53498;DHT22;39382;47.168;16.008;2023-03-07T03:18:58;3.30;99.90
53498;DHT22;39382;47.168;16.008;2023-03-07T03:21:24;3.30;99.90
53498;DHT22;39382;47.168;16.008;2023-03-07T03:23:50;3.50;99.90
53498;DHT22;39382;47.168;16.008;2023-03-07T03:26:16;3.40;99.90
53498;DHT22;39382;47.168;16.008;2023-03-07T03:28:42;3.30;99.90
53498;DHT22;39382;47.168;16.008;2023-03-07T03:31:10;3.30;99.90
53498;DHT22;39382;47.168;16.008;2023-03-07T03:33:36;3.20;99.90
53498;DHT22;39382;47.168;16.008;2023-03-07T03:36:17;3.20;99.90
53498;DHT22;39382;47.168;16.008;2023-03-07T03:38:43;3.20;99.90
53498;DHT22;39382;47.168;16.008;2023-03-07T03:41:13;3.20;99.90
53498;DHT22;39382;47.168;16.008;2023-03-07T03:43:42;3.20;99.90
53498;DHT22;39382;47.168;16.008;2023-03-07T03:46:08;3.30;99.90
53498;DHT22;39382;47.168;16.008;2023-03-07T03:48:34;3.30;99.90
53498;DHT22;39382;47.168;16.008;2023-03-07T03:51:05;3.30;99.90
53498;DHT22;39382;47.168;16.008;2023-03-07T03:53:33;3.20;99.90
53498;DHT22;39382;47.168;16.008;2023-03-07T03:56:19;3.30;99.90
53498;DHT22;39382;47.168;16.008;2023-03-07T03:58:50;3.40;99.90
53498;DHT22;39382;47.168;16.008;2023-03-07T04:01:18;3.30;99.90
53498;DHT22;39382;47.168;16.008;2023-03-07T04:03:47;3.30;99.90
53498;DHT22;39382;47.168;16.008;2023-03-07T04:06:24;3.20;99.90
53498;DHT22;39382;47.168;16.008;2023-03-07T04:08:51;3.30;99.90
53498;DHT22;39382;47.168;16.008;2023-03-07T04:11:18;3.20;99.90
53498;DHT22;39382;47.168;16.008;2023-03-07T04:13:44;3.30;99.90
53498;DHT22;39382;47.168;16.008;2023-03-07T04:16:10;3.30;99.90
53498;DHT22;39382;47.168;16.008;2023-03-07T04:18:35;3.30;99.90
53498;DHT22;39382;47.168;16.008;2023-03-07T04:21:02;3.30;99.90
53498;DHT22;39382;47.168;16.008;2023-03-07T04:23:28;3.30;99.90
53498;DHT22;39382;47.168;16.008;2023-03-07T04:25:55;3.30;99.90
53498;DHT22;39382;47.168;16.008;2023-03-07T04:28:27;3.30;99.90
53498;DHT22;39382;47.168;16.008;2023-03-07T04:30:53;3.30;99.90
53498;DHT22;39382;47.168;16.008;2023-03-07T04:33:21;3.30;99.90
53498;DHT22;39382;47.168;16.008;2023-03-07T04:35:46;3.30;99.90
53498;DHT22;39382;47.168;16.008;2023-03-07T04:38:13;3.30;99.90
53498;DHT22;39382;47.168;16.008;2023-03-07T04:40:39;3.30;99.90
53498;DHT22;39382;47.168;16.008;2023-03-07T04:43:05;3.30;99.90
53498;DHT22;39382;47.168;16.008;2023-03-07T04:45:33;3.30;99.90
53498;DHT22;39382;47.168;16.008;2023-03-07T04:47:59;3.20;99.90
53498;DHT22;39382;47.168;16.008;2023-03-07T04:50:25;3.30;99.90
53498;DHT22;39382;47.168;16.008;2023-03-07T04:52:50;3.20;99.90
53498;DHT22;39382;47.168;16.008;2023-03-07T04:55:16;3.20;99.90
53498;DHT22;39382;47.168;16.008;2023-03-07T04:57:42;3.20;99.90
53498;DHT22;39382;47.168;16.008;2023-03-07T05:00:08;3.20;99.90
53498;DHT22;39382;47.168;16.008;2023-03-07T05:02:35;3.20;99.90
53498;DHT22;39382;47.168;16.008;2023-03-07T05:05:01;3.20;99.90
53498;DHT22;39382;47.168;16.008;2023-03-07T05:07:27;3.20;99.90
53498;DHT22;39382;47.168;16.008;2023-03-07T05:09:54;3.20;99.90
53498;DHT22;39382;47.168;16.008;2023-03-07T05:12:20;3.20;99.90
53498;DHT22;39382;47.168;16.008;2023-03-07T05:14:46;3.30;99.90
53498;DHT22;39382;47.168;16.008;2023-03-07T05:17:12;3.20;99.90
53498;DHT22;39382;47.168;16.008;2023-03-07T05:19:37;3.20;99.90
53498;DHT22;39382;47.168;16.008;2023-03-07T05:22:03;3.30;99.90
53498;DHT22;39382;47.168;16.008;2023-03-07T05:24:29;3.40;99.90
53498;DHT22;39382;47.168;16.008;2023-03-07T05:26:54;3.40;99.90
53498;DHT22;39382;47.168;16.008;2023-03-07T05:29:20;3.40;99.90
53498;DHT22;39382;47.168;16.008;2023-03-07T05:31:46;3.40;99.90
53498;DHT22;39382;47.168;16.008;2023-03-07T05:34:11;3.40;99.90
53498;DHT22;39382;47.168;16.008;2023-03-07T05:36:37;3.50;99.90
53498;DHT22;39382;47.168;16.008;2023-03-07T05:39:03;3.50;99.90
53498;DHT22;39382;47.168;16.008;2023-03-07T05:41:30;3.50;99.90
53498;DHT22;39382;47.168;16.008;2023-03-07T05:43:56;3.50;99.90
53498;DHT22;39382;47.168;16.008;2023-03-07T05:46:23;3.50;99.90
53498;DHT22;39382;47.168;16.008;2023-03-07T05:48:48;3.50;99.90
53498;DHT22;39382;47.168;16.008;2023-03-07T05:51:14;3.50;99.90
53498;DHT22;39382;47.168;16.008;2023-03-07T05:53:40;3.40;99.90
53498;DHT22;39382;47.168;16.008;2023-03-07T05:56:06;3.40;99.90
53498;DHT22;39382;47.168;16.008;2023-03-07T05:58:32;3.40;99.90
53498;DHT22;39382;47.168;16.008;2023-03-07T06:01:00;3.40;99.90
53498;DHT22;39382;47.168;16.008;2023-03-07T06:03:25;3.40;99.90
53498;DHT22;39382;47.168;16.008;2023-03-07T06:05:51;3.50;99.90
53498;DHT22;39382;47.168;16.008;2023-03-07T06:08:17;3.50;99.90
53498;DHT22;39382;47.168;16.008;2023-03-07T06:10:42;3.50;99.90
53498;DHT22;39382;47.168;16.008;2023-03-07T06:13:16;3.50;99.90
53498;DHT22;39382;47.168;16.008;2023-03-07T06:15:43;3.60;99.90
53498;DHT22;39382;47.168;16.008;2023-03-07T06:18:09;4.30;99.90
53498;DHT22;39382;47.168;16.008;2023-03-07T06:20:35;4.20;99.90
53498;DHT22;39382;47.168;16.008;2023-03-07T06:23:01;3.90;99.90
53498;DHT22;39382;47.168;16.008;2023-03-07T06:25:27;3.80;99.90
53498;DHT22;39382;47.168;16.008;2023-03-07T06:27:52;3.80;99.90
53498;DHT22;39382;47.168;16.008;2023-03-07T06:30:24;3.70;99.90
53498;DHT22;39382;47.168;16.008;2023-03-07T06:32:49;3.60;99.90
53498;DHT22;39382;47.168;16.008;2023-03-07T06:35:15;3.60;99.90
53498;DHT22;39382;47.168;16.008;2023-03-07T06:37:41;3.60;99.90
53498;DHT22;39382;47.168;16.008;2023-03-07T06:40:07;3.70;99.90
53498;DHT22;39382;47.168;16.008;2023-03-07T06:42:34;3.70;99.90
53498;DHT22;39382;47.168;16.008;2023-03-07T06:45:00;3.70;99.90
53498;DHT22;39382;47.168;16.008;2023-03-07T06:47:25;3.70;99.90
53498;DHT22;39382;47.168;16.008;2023-03-07T06:49:51;3.80;99.90
53498;DHT22;39382;47.168;16.008;2023-03-07T06:52:18;3.80;99.90
53498;DHT22;39382;47.168;16.008;2023-03-07T06:54:43;3.80;99.90
53498;DHT22;39382;47.168;16.008;2023-03-07T06:57:09;3.90;99.90
53498;DHT22;39382;47.168;16.008;2023-03-07T06:59:35;3.90;99.90
53498;DHT22;39382;47.168;16.008;2023-03-07T07:02:04;3.90;99.90
53498;DHT22;39382;47.168;16.008;2023-03-07T07:04:29;3.90;99.90
53498;DHT22;39382;47.168;16.008;2023-03-07T07:06:55;3.90;99.90
53498;DHT22;39382;47.168;16.008;2023-03-07T07:09:21;3.90;99.90
53498;DHT22;39382;47.168;16.008;2023-03-07T07:11:46;3.90;99.90
53498;DHT22;39382;47.168;16.008;2023-03-07T07:14:12;3.80;99.90
53498;DHT22;39382;47.168;16.008;2023-03-07T07:16:38;3.80;99.90
53498;DHT22;39382;47.168;16.008;2023-03-07T07:19:03;3.80;99.90
53498;DHT22;39382;47.168;16.008;2023-03-07T07:21:29;3.80;99.90
53498;DHT22;39382;47.168;16.008;2023-03-07T07:23:55;3.80;99.90
53498;DHT22;39382;47.168;16.008;2023-03-07T07:26:22;3.70;99.90
53498;DHT22;39382;47.168;16.008;2023-03-07T07:28:49;3.70;99.90
53498;DHT22;39382;47.168;16.008;2023-03-07T07:31:14;3.80;99.90
53498;DHT22;39382;47.168;16.008;2023-03-07T07:33:40;3.80;99.90
53498;DHT22;39382;47.168;16.008;2023-03-07T07:36:07;3.80;99.90
53498;DHT22;39382;47.168;16.008;2023-03-07T07:38:32;3.80;99.90
53498;DHT22;39382;47.168;16.008;2023-03-07T07:40:58;3.80;99.90
53498;DHT22;39382;47.168;16.008;2023-03-07T07:43:24;3.90;99.90
53498;DHT22;39382;47.168;16.008;2023-03-07T07:45:49;3.90;99.90
53498;DHT22;39382;47.168;16.008;2023-03-07T07:48:15;3.90;99.90
53498;DHT22;39382;47.168;16.008;2023-03-07T07:50:41;4.00;99.90
53498;DHT22;39382;47.168;16.008;2023-03-07T07:53:07;4.00;99.90
53498;DHT22;39382;47.168;16.008;2023-03-07T07:55:32;4.10;99.90
53498;DHT22;39382;47.168;16.008;2023-03-07T07:57:58;4.00;99.90
53498;DHT22;39382;47.168;16.008;2023-03-07T08:00:24;4.00;99.90
53498;DHT22;39382;47.168;16.008;2023-03-07T08:02:50;4.00;99.90
53498;DHT22;39382;47.168;16.008;2023-03-07T08:05:20;4.00;99.90
53498;DHT22;39382;47.168;16.008;2023-03-07T08:07:46;4.00;99.90
53498;DHT22;39382;47.168;16.008;2023-03-07T08:10:13;4.10;99.90
53498;DHT22;39382;47.168;16.008;2023-03-07T08:12:48;4.10;99.90
53498;DHT22;39382;47.168;16.008;2023-03-07T08:15:18;4.10;99.90
53498;DHT22;39382;47.168;16.008;2023-03-07T08:17:46;4.20;99.90
53498;DHT22;39382;47.168;16.008;2023-03-07T08:20:12;4.30;99.90
53498;DHT22;39382;47.168;16.008;2023-03-07T08:22:38;4.30;99.90
53498;DHT22;39382;47.168;16.008;2023-03-07T08:25:05;4.20;99.90
53498;DHT22;39382;47.168;16.008;2023-03-07T08:27:32;4.20;99.90
53498;DHT22;39382;47.168;16.008;2023-03-07T08:29:59;4.30;99.90
53498;DHT22;39382;47.168;16.008;2023-03-07T08:32:25;4.30;99.90
53498;DHT22;39382;47.168;16.008;2023-03-07T08:34:51;4.40;99.90
53498;DHT22;39382;47.168;16.008;2023-03-07T08:37:17;4.40;99.90
53498;DHT22;39382;47.168;16.008;2023-03-07T08:39:43;4.40;99.90
53498;DHT22;39382;47.168;16.008;2023-03-07T08:42:08;4.40;99.90
53498;DHT22;39382;47.168;16.008;2023-03-07T08:44:34;4.50;99.90
53498;DHT22;39382;47.168;16.008;2023-03-07T08:47:00;4.70;99.90
53498;DHT22;39382;47.168;16.008;2023-03-07T08:49:26;4.70;99.90
53498;DHT22;39382;47.168;16.008;2023-03-07T08:51:51;4.60;99.90
53498;DHT22;39382;47.168;16.008;2023-03-07T08:54:17;4.70;99.90
53498;DHT22;39382;47.168;16.008;2023-03-07T08:56:43;4.60;99.90
53498;DHT22;39382;47.168;16.008;2023-03-07T08:59:08;4.50;99.90
53498;DHT22;39382;47.168;16.008;2023-03-07T09:01:34;4.50;99.90
53498;DHT22;39382;47.168;16.008;2023-03-07T09:03:59;4.50;99.90
53498;DHT22;39382;47.168;16.008;2023-03-07T09:06:25;4.50;99.90
53498;DHT22;39382;47.168;16.008;2023-03-07T09:08:51;4.50;99.90
53498;DHT22;39382;47.168;16.008;2023-03-07T09:11:17;4.40;99.90
53498;DHT22;39382;47.168;16.008;2023-03-07T09:13:43;4.40;99.90
53498;DHT22;39382;47.168;16.008;2023-03-07T09:16:09;4.60;99.90
53498;DHT22;39382;47.168;16.008;2023-03-07T09:18:35;4.70;99.90
53498;DHT22;39382;47.168;16.008;2023-03-07T09:21:02;4.60;99.90
53498;DHT22;39382;47.168;16.008;2023-03-07T09:23:28;4.50;99.90
53498;DHT22;39382;47.168;16.008;2023-03-07T09:25:58;4.40;99.90
53498;DHT22;39382;47.168;16.008;2023-03-07T09:28:23;4.40;99.90
53498;DHT22;39382;47.168;16.008;2023-03-07T09:30:49;4.40;99.90
53498;DHT22;39382;47.168;16.008;2023-03-07T09:33:15;4.40;99.90
53498;DHT22;39382;47.168;16.008;2023-03-07T09:35:41;4.40;99.90
53498;DHT22;39382;47.168;16.008;2023-03-07T09:38:07;4.40;99.90
53498;DHT22;39382;47.168;16.008;2023-03-07T09:40:33;4.50;99.90
53498;DHT22;39382;47.168;16.008;2023-03-07T09:43:20;4.50;99.90
53498;DHT22;39382;47.168;16.008;2023-03-07T09:51:40;4.60;99.90
53498;DHT22;39382;47.168;16.008;2023-03-07T09:54:19;4.70;99.90
53498;DHT22;39382;47.168;16.008;2023-03-07T09:56:53;4.70;99.90
53498;DHT22;39382;47.168;16.008;2023-03-07T09:59:35;4.60;99.90
53498;DHT22;39382;47.168;16.008;2023-03-07T10:02:35;4.60;99.90
53498;DHT22;39382;47.168;16.008;2023-03-07T10:07:52;4.70;99.90
53498;DHT22;39382;47.168;16.008;2023-03-07T10:10:35;4.70;99.90
53498;DHT22;39382;47.168;16.008;2023-03-07T10:13:24;4.70;99.90
53498;DHT22;39382;47.168;16.008;2023-03-07T10:15:55;4.70;99.90
53498;DHT22;39382;47.168;16.008;2023-03-07T10:18:55;4.70;99.90
53498;DHT22;39382;47.168;16.008;2023-03-07T10:29:17;4.90;99.90
53498;DHT22;39382;47.168;16.008;2023-03-07T10:31:48;4.70;99.90
53498;DHT22;39382;47.168;16.008;2023-03-07T10:34:36;4.50;99.90
53498;DHT22;39382;47.168;16.008;2023-03-07T10:37:25;4.50;99.90
53498;DHT22;39382;47.168;16.008;2023-03-07T10:39:55;4.60;99.90
53498;DHT22;39382;47.168;16.008;2023-03-07T10:42:26;4.40;99.90
53498;DHT22;39382;47.168;16.008;2023-03-07T10:44:56;4.40;99.90
53498;DHT22;39382;47.168;16.008;2023-03-07T10:47:24;4.60;99.90
53498;DHT22;39382;47.168;16.008;2023-03-07T10:49:53;4.50;99.90
53498;DHT22;39382;47.168;16.008;2023-03-07T10:52:39;4.60;99.90
53498;DHT22;39382;47.168;16.008;2023-03-07T10:58:22;4.50;99.90
53498;DHT22;39382;47.168;16.008;2023-03-07T11:01:10;4.40;99.90
53498;DHT22;39382;47.168;16.008;2023-03-07T11:03:49;4.50;99.90
53498;DHT22;39382;47.168;16.008;2023-03-07T11:08:52;4.60;99.90
53498;DHT22;39382;47.168;16.008;2023-03-07T11:11:23;4.40;99.90
53498;DHT22;39382;47.168;16.008;2023-03-07T11:14:05;4.50;99.90
53498;DHT22;39382;47.168;16.008;2023-03-07T11:16:31;4.50;99.90
53498;DHT22;39382;47.168;16.008;2023-03-07T11:18:57;4.50;99.90
53498;DHT22;39382;47.168;16.008;2023-03-07T11:21:31;4.40;99.90
53498;DHT22;39382;47.168;16.008;2023-03-07T11:24:08;4.40;99.90
53498;DHT22;39382;47.168;16.008;2023-03-07T11:26:41;4.30;99.90
53498;DHT22;39382;47.168;16.008;2023-03-07T11:29:11;4.40;99.90
53498;DHT22;39382;47.168;16.008;2023-03-07T11:31:45;4.30;99.90
53498;DHT22;39382;47.168;16.008;2023-03-07T11:36:52;4.20;99.90
53498;DHT22;39382;47.168;16.008;2023-03-07T11:39:33;4.20;99.90
53498;DHT22;39382;47.168;16.008;2023-03-07T11:42:16;4.10;99.90
53498;DHT22;39382;47.168;16.008;2023-03-07T11:50:22;4.00;99.90
53498;DHT22;39382;47.168;16.008;2023-03-07T12:01:44;4.10;99.90
53498;DHT22;39382;47.168;16.008;2023-03-07T12:15:58;4.20;99.90
53498;DHT22;39382;47.168;16.008;2023-03-07T12:19:13;4.20;99.90
53498;DHT22;39382;47.168;16.008;2023-03-07T12:24:50;5.20;99.90
53498;DHT22;39382;47.168;16.008;2023-03-07T12:27:40;4.90;99.90
53498;DHT22;39382;47.168;16.008;2023-03-07T12:32:49;4.40;99.90
53498;DHT22;39382;47.168;16.008;2023-03-07T12:35:42;4.40;99.90
53498;DHT22;39382;47.168;16.008;2023-03-07T12:38:36;4.30;99.90
53498;DHT22;39382;47.168;16.008;2023-03-07T12:43:45;4.20;99.90
53498;DHT22;39382;47.168;16.008;2023-03-07T12:46:21;4.20;99.90
53498;DHT22;39382;47.168;16.008;2023-03-07T12:48:53;4.10;99.90
53498;DHT22;39382;47.168;16.008;2023-03-07T12:51:30;4.10;99.90
53498;DHT22;39382;47.168;16.008;2023-03-07T12:54:08;4.10;99.90
53498;DHT22;39382;47.168;16.008;2023-03-07T12:59:18;4.20;99.90
53498;DHT22;39382;47.168;16.008;2023-03-07T13:02:02;4.20;99.90
53498;DHT22;39382;47.168;16.008;2023-03-07T13:04:32;4.20;99.90
53498;DHT22;39382;47.168;16.008;2023-03-07T13:09:33;4.00;99.90
53498;DHT22;39382;47.168;16.008;2023-03-07T13:27:57;4.40;99.90
53498;DHT22;39382;47.168;16.008;2023-03-07T13:30:30;4.20;99.90
53498;DHT22;39382;47.168;16.008;2023-03-07T13:33:00;4.20;99.90
53498;DHT22;39382;47.168;16.008;2023-03-07T13:40:27;4.20;99.90
53498;DHT22;39382;47.168;16.008;2023-03-07T13:42:54;4.30;99.90
53498;DHT22;39382;47.168;16.008;2023-03-07T13:48:10;4.20;99.90
53498;DHT22;39382;47.168;16.008;2023-03-07T13:53:14;4.30;99.90
53498;DHT22;39382;47.168;16.008;2023-03-07T13:55:47;4.20;99.90
53498;DHT22;39382;47.168;16.008;2023-03-07T13:58:32;4.20;99.90
53498;DHT22;39382;47.168;16.008;2023-03-07T14:01:15;4.20;99.90
53498;DHT22;39382;47.168;16.008;2023-03-07T14:04:24;4.30;99.90
53498;DHT22;39382;47.168;16.008;2023-03-07T14:07:17;4.10;99.90
53498;DHT22;39382;47.168;16.008;2023-03-07T14:09:52;4.20;99.90
53498;DHT22;39382;47.168;16.008;2023-03-07T14:18:28;4.20;99.90
53498;DHT22;39382;47.168;16.008;2023-03-07T14:21:14;4.20;99.90
53498;DHT22;39382;47.168;16.008;2023-03-07T14:24:11;4.20;99.90
53498;DHT22;39382;47.168;16.008;2023-03-07T14:26:43;4.20;99.90
53498;DHT22;39382;47.168;16.008;2023-03-07T14:29:19;4.30;99.90
53498;DHT22;39382;47.168;16.008;2023-03-07T14:31:48;4.70;99.90
53498;DHT22;39382;47.168;16.008;2023-03-07T14:37:09;4.60;99.90
53498;DHT22;39382;47.168;16.008;2023-03-07T14:50:30;4.50;99.90
53498;DHT22;39382;47.168;16.008;2023-03-07T14:53:04;4.70;99.90
53498;DHT22;39382;47.168;16.008;2023-03-07T14:55:35;4.60;99.90
53498;DHT22;39382;47.168;16.008;2023-03-07T14:58:03;4.50;99.90
53498;DHT22;39382;47.168;16.008;2023-03-07T15:00:29;4.50;99.90
53498;DHT22;39382;47.168;16.008;2023-03-07T15:03:05;4.60;99.90
53498;DHT22;39382;47.168;16.008;2023-03-07T15:05:57;4.50;99.90
53498;DHT22;39382;47.168;16.008;2023-03-07T15:08:30;4.50;99.90
53498;DHT22;39382;47.168;16.008;2023-03-07T15:19:10;4.30;99.90
53498;DHT22;39382;47.168;16.008;2023-03-07T15:21:43;4.40;99.90
53498;DHT22;39382;47.168;16.008;2023-03-07T15:24:20;4.30;99.90
53498;DHT22;39382;47.168;16.008;2023-03-07T15:26:50;4.40;99.90
53498;DHT22;39382;47.168;16.008;2023-03-07T15:29:19;4.40;99.90
53498;DHT22;39382;47.168;16.008;2023-03-07T15:36:52;4.40;99.90
53498;DHT22;39382;47.168;16.008;2023-03-07T15:39:28;4.30;99.90
53498;DHT22;39382;47.168;16.008;2023-03-07T15:42:07;4.20;99.90
53498;DHT22;39382;47.168;16.008;2023-03-07T15:44:34;4.30;99.90
53498;DHT22;39382;47.168;16.008;2023-03-07T15:47:12;4.20;99.90
53498;DHT22;39382;47.168;16.008;2023-03-07T15:49:45;4.20;99.90
53498;DHT22;39382;47.168;16.008;2023-03-07T15:54:53;4.30;99.90
53498;DHT22;39382;47.168;16.008;2023-03-07T15:57:24;4.30;99.90
53498;DHT22;39382;47.168;16.008;2023-03-07T16:00:01;4.30;99.90
53498;DHT22;39382;47.168;16.008;2023-03-07T16:07:53;4.30;99.90
53498;DHT22;39382;47.168;16.008;2023-03-07T16:10:19;4.20;99.90
53498;DHT22;39382;47.168;16.008;2023-03-07T16:12:46;4.40;99.90
53498;DHT22;39382;47.168;16.008;2023-03-07T16:15:14;4.60;99.90
53498;DHT22;39382;47.168;16.008;2023-03-07T16:17:41;4.60;99.90
53498;DHT22;39382;47.168;16.008;2023-03-07T16:20:18;4.60;99.90
53498;DHT22;39382;47.168;16.008;2023-03-07T16:22:44;4.60;99.90
53498;DHT22;39382;47.168;16.008;2023-03-07T16:25:13;5.40;99.90
53498;DHT22;39382;47.168;16.008;2023-03-07T16:27:42;5.20;99.90
53498;DHT22;39382;47.168;16.008;2023-03-07T16:30:16;5.00;99.90
53498;DHT22;39382;47.168;16.008;2023-03-07T16:32:42;4.70;99.90
53498;DHT22;39382;47.168;16.008;2023-03-07T16:35:17;4.50;99.90
53498;DHT22;39382;47.168;16.008;2023-03-07T16:37:43;4.30;99.90
53498;DHT22;39382;47.168;16.008;2023-03-07T16:40:10;4.20;99.90
53498;DHT22;39382;47.168;16.008;2023-03-07T16:42:36;4.30;99.90
53498;DHT22;39382;47.168;16.008;2023-03-07T16:45:06;4.20;99.90
53498;DHT22;39382;47.168;16.008;2023-03-07T16:47:35;4.30;99.90
53498;DHT22;39382;47.168;16.008;2023-03-07T16:50:01;4.30;99.90
53498;DHT22;39382;47.168;16.008;2023-03-07T16:52:27;4.20;99.90
53498;DHT22;39382;47.168;16.008;2023-03-07T16:54:53;4.20;99.90
53498;DHT22;39382;47.168;16.008;2023-03-07T16:57:25;4.30;99.90
53498;DHT22;39382;47.168;16.008;2023-03-07T16:59:51;4.40;99.90
53498;DHT22;39382;47.168;16.008;2023-03-07T17:02:18;4.30;99.90
53498;DHT22;39382;47.168;16.008;2023-03-07T17:04:44;4.40;99.90
53498;DHT22;39382;47.168;16.008;2023-03-07T17:07:21;4.30;99.90
53498;DHT22;39382;47.168;16.008;2023-03-07T17:09:48;4.30;99.90
53498;DHT22;39382;47.168;16.008;2023-03-07T17:12:14;4.30;99.90
53498;DHT22;39382;47.168;16.008;2023-03-07T17:14:41;4.30;99.90
53498;DHT22;39382;47.168;16.008;2023-03-07T17:17:06;4.30;99.90
53498;DHT22;39382;47.168;16.008;2023-03-07T17:19:35;4.20;99.90
53498;DHT22;39382;47.168;16.008;2023-03-07T17:22:01;4.30;99.90
53498;DHT22;39382;47.168;16.008;2023-03-07T17:24:28;4.30;99.90
53498;DHT22;39382;47.168;16.008;2023-03-07T17:26:54;4.20;99.90
53498;DHT22;39382;47.168;16.008;2023-03-07T17:29:44;4.20;99.90
53498;DHT22;39382;47.168;16.008;2023-03-07T17:32:12;4.30;99.90
53498;DHT22;39382;47.168;16.008;2023-03-07T17:34:38;4.30;99.90
53498;DHT22;39382;47.168;16.008;2023-03-07T17:37:04;4.20;99.90
53498;DHT22;39382;47.168;16.008;2023-03-07T17:39:31;4.20;99.90
53498;DHT22;39382;47.168;16.008;2023-03-07T17:41:59;4.20;99.90
53498;DHT22;39382;47.168;16.008;2023-03-07T17:44:25;4.20;99.90
53498;DHT22;39382;47.168;16.008;2023-03-07T17:46:51;4.30;99.90
53498;DHT22;39382;47.168;16.008;2023-03-07T17:49:17;4.30;99.90
53498;DHT22;39382;47.168;16.008;2023-03-07T17:51:43;4.60;99.90
53498;DHT22;39382;47.168;16.008;2023-03-07T17:54:09;4.50;99.90
53498;DHT22;39382;47.168;16.008;2023-03-07T17:56:37;4.50;99.90
53498;DHT22;39382;47.168;16.008;2023-03-07T17:59:03;4.30;99.90
53498;DHT22;39382;47.168;16.008;2023-03-07T18:01:31;4.30;99.90